sensor_id;sensor_type;location;lat;lon;timestamp;P1;durP1;ratioP1;P2;durP2;ratioP2
24145;SDS011;12308;50.948;4.706;2023-03-01T00:01:22;45.50;;;22.90;;
24145;SDS011;12308;50.948;4.706;2023-03-01T00:03:49;47.47;;;23.80;;
24145;SDS011;12308;50.948;4.706;2023-03-01T00:06:15;43.33;;;24.02;;
24145;SDS011;12308;50.948;4.706;2023-03-01T00:08:41;44.15;;;24.27;;
24145;SDS011;12308;50.948;4.706;2023-03-01T00:11:09;41.58;;;23.55;;
24145;SDS011;12308;50.948;4.706;2023-03-01T00:13:37;44.23;;;24.57;;
24145;SDS011;12308;50.948;4.706;2023-03-01T00:16:04;44.20;;;24.77;;
24145;SDS011;12308;50.948;4.706;2023-03-01T00:18:30;42.47;;;24.33;;
24145;SDS011;12308;50.948;4.706;2023-03-01T00:20:56;42.97;;;24.45;;
24145;SDS011;12308;50.948;4.706;2023-03-01T00:23:22;41.38;;;24.02;;
24145;SDS011;12308;50.948;4.706;2023-03-01T00:25:48;41.17;;;24.77;;
24145;SDS011;12308;50.948;4.706;2023-03-01T00:28:14;42.90;;;24.15;;
24145;SDS011;12308;50.948;4.706;2023-03-01T00:30:40;41.60;;;23.83;;
24145;SDS011;12308;50.948;4.706;2023-03-01T00:33:06;41.22;;;23.63;;
24145;SDS011;12308;50.948;4.706;2023-03-01T00:35:32;43.10;;;24.13;;
24145;SDS011;12308;50.948;4.706;2023-03-01T00:37:58;43.42;;;24.63;;
24145;SDS011;12308;50.948;4.706;2023-03-01T00:40:24;45.25;;;23.67;;
24145;SDS011;12308;50.948;4.706;2023-03-01T00:42:50;45.10;;;23.55;;
24145;SDS011;12308;50.948;4.706;2023-03-01T00:45:16;46.45;;;23.92;;
24145;SDS011;12308;50.948;4.706;2023-03-01T00:47:42;42.35;;;22.98;;
24145;SDS011;12308;50.948;4.706;2023-03-01T00:50:09;43.15;;;23.77;;
24145;SDS011;12308;50.948;4.706;2023-03-01T00:52:35;40.55;;;22.67;;
24145;SDS011;12308;50.948;4.706;2023-03-01T00:55:01;42.25;;;24.50;;
24145;SDS011;12308;50.948;4.706;2023-03-01T00:57:28;42.53;;;24.75;;
24145;SDS011;12308;50.948;4.706;2023-03-01T00:59:54;42.75;;;23.92;;
24145;SDS011;12308;50.948;4.706;2023-03-01T01:02:19;41.30;;;24.67;;
24145;SDS011;12308;50.948;4.706;2023-03-01T01:04:46;39.72;;;22.63;;
24145;SDS011;12308;50.948;4.706;2023-03-01T01:07:12;42.92;;;23.83;;
24145;SDS011;12308;50.948;4.706;2023-03-01T01:09:38;45.67;;;24.02;;
24145;SDS011;12308;50.948;4.706;2023-03-01T01:12:04;46.60;;;23.95;;
24145;SDS011;12308;50.948;4.706;2023-03-01T01:14:30;43.33;;;23.13;;
24145;SDS011;12308;50.948;4.706;2023-03-01T01:16:56;44.58;;;22.98;;
24145;SDS011;12308;50.948;4.706;2023-03-01T01:19:23;39.92;;;22.50;;
24145;SDS011;12308;50.948;4.706;2023-03-01T01:21:49;48.83;;;22.25;;
24145;SDS011;12308;50.948;4.706;2023-03-01T01:24:15;42.10;;;22.77;;
24145;SDS011;12308;50.948;4.706;2023-03-01T01:26:41;43.50;;;22.38;;
24145;SDS011;12308;50.948;4.706;2023-03-01T01:29:07;41.08;;;22.95;;
24145;SDS011;12308;50.948;4.706;2023-03-01T01:31:34;42.42;;;22.27;;
24145;SDS011;12308;50.948;4.706;2023-03-01T01:34:00;45.50;;;22.50;;
24145;SDS011;12308;50.948;4.706;2023-03-01T01:36:27;40.70;;;22.27;;
24145;SDS011;12308;50.948;4.706;2023-03-01T01:38:53;41.75;;;22.42;;
24145;SDS011;12308;50.948;4.706;2023-03-01T01:41:19;40.30;;;22.83;;
24145;SDS011;12308;50.948;4.706;2023-03-01T01:46:37;40.90;;;23.13;;
24145;SDS011;12308;50.948;4.706;2023-03-01T01:49:06;39.47;;;22.35;;
24145;SDS011;12308;50.948;4.706;2023-03-01T01:51:40;40.72;;;23.35;;
24145;SDS011;12308;50.948;4.706;2023-03-01T01:54:11;46.45;;;24.27;;
24145;SDS011;12308;50.948;4.706;2023-03-01T01:56:39;40.92;;;23.33;;
24145;SDS011;12308;50.948;4.706;2023-03-01T01:59:08;38.58;;;22.98;;
24145;SDS011;12308;50.948;4.706;2023-03-01T02:01:34;41.13;;;23.73;;
24145;SDS011;12308;50.948;4.706;2023-03-01T02:04:00;47.67;;;23.92;;
24145;SDS011;12308;50.948;4.706;2023-03-01T02:06:39;45.03;;;23.77;;
24145;SDS011;12308;50.948;4.706;2023-03-01T02:09:15;42.08;;;22.63;;
24145;SDS011;12308;50.948;4.706;2023-03-01T02:11:43;43.45;;;22.60;;
24145;SDS011;12308;50.948;4.706;2023-03-01T02:14:09;41.35;;;23.63;;
24145;SDS011;12308;50.948;4.706;2023-03-01T02:16:35;38.15;;;22.67;;
24145;SDS011;12308;50.948;4.706;2023-03-01T02:19:01;43.53;;;23.70;;
24145;SDS011;12308;50.948;4.706;2023-03-01T02:24:23;44.47;;;23.35;;
24145;SDS011;12308;50.948;4.706;2023-03-01T02:27:01;39.13;;;22.65;;
24145;SDS011;12308;50.948;4.706;2023-03-01T02:29:27;41.17;;;23.27;;
24145;SDS011;12308;50.948;4.706;2023-03-01T02:31:53;42.63;;;23.58;;
24145;SDS011;12308;50.948;4.706;2023-03-01T02:34:23;43.88;;;24.05;;
24145;SDS011;12308;50.948;4.706;2023-03-01T02:36:59;45.45;;;23.33;;
24145;SDS011;12308;50.948;4.706;2023-03-01T02:39:42;41.17;;;23.25;;
24145;SDS011;12308;50.948;4.706;2023-03-01T02:42:14;42.20;;;23.30;;
24145;SDS011;12308;50.948;4.706;2023-03-01T02:44:45;44.47;;;22.50;;
24145;SDS011;12308;50.948;4.706;2023-03-01T02:47:10;44.45;;;23.33;;
24145;SDS011;12308;50.948;4.706;2023-03-01T02:49:36;39.85;;;22.08;;
24145;SDS011;12308;50.948;4.706;2023-03-01T02:55:09;45.97;;;22.60;;
24145;SDS011;12308;50.948;4.706;2023-03-01T02:57:38;41.72;;;22.33;;
24145;SDS011;12308;50.948;4.706;2023-03-01T03:00:08;41.30;;;23.02;;
24145;SDS011;12308;50.948;4.706;2023-03-01T03:02:44;43.80;;;22.00;;
24145;SDS011;12308;50.948;4.706;2023-03-01T03:05:14;44.72;;;22.77;;
24145;SDS011;12308;50.948;4.706;2023-03-01T03:07:43;42.40;;;23.77;;
24145;SDS011;12308;50.948;4.706;2023-03-01T03:10:21;41.55;;;22.25;;
24145;SDS011;12308;50.948;4.706;2023-03-01T03:12:53;40.30;;;21.90;;
24145;SDS011;12308;50.948;4.706;2023-03-01T03:15:21;40.65;;;21.17;;
24145;SDS011;12308;50.948;4.706;2023-03-01T03:17:48;38.85;;;21.60;;
24145;SDS011;12308;50.948;4.706;2023-03-01T03:20:15;36.42;;;21.75;;
24145;SDS011;12308;50.948;4.706;2023-03-01T03:22:47;40.30;;;21.23;;
24145;SDS011;12308;50.948;4.706;2023-03-01T03:25:14;44.38;;;23.02;;
24145;SDS011;12308;50.948;4.706;2023-03-01T03:27:41;40.97;;;21.45;;
24145;SDS011;12308;50.948;4.706;2023-03-01T03:30:09;51.08;;;23.65;;
24145;SDS011;12308;50.948;4.706;2023-03-01T03:32:40;38.17;;;21.38;;
24145;SDS011;12308;50.948;4.706;2023-03-01T03:35:07;39.85;;;21.02;;
24145;SDS011;12308;50.948;4.706;2023-03-01T03:37:35;38.33;;;21.35;;
24145;SDS011;12308;50.948;4.706;2023-03-01T03:40:24;43.58;;;21.75;;
24145;SDS011;12308;50.948;4.706;2023-03-01T03:42:50;43.13;;;22.13;;
24145;SDS011;12308;50.948;4.706;2023-03-01T03:45:16;42.25;;;22.23;;
24145;SDS011;12308;50.948;4.706;2023-03-01T03:47:42;40.50;;;21.20;;
24145;SDS011;12308;50.948;4.706;2023-03-01T03:50:09;37.28;;;20.05;;
24145;SDS011;12308;50.948;4.706;2023-03-01T03:52:37;40.35;;;20.13;;
24145;SDS011;12308;50.948;4.706;2023-03-01T03:55:03;37.35;;;20.60;;
24145;SDS011;12308;50.948;4.706;2023-03-01T03:57:34;36.78;;;19.55;;
24145;SDS011;12308;50.948;4.706;2023-03-01T04:00:00;36.60;;;19.45;;
24145;SDS011;12308;50.948;4.706;2023-03-01T04:02:29;36.13;;;19.45;;
24145;SDS011;12308;50.948;4.706;2023-03-01T04:04:55;37.63;;;20.23;;
24145;SDS011;12308;50.948;4.706;2023-03-01T04:07:21;36.67;;;19.35;;
24145;SDS011;12308;50.948;4.706;2023-03-01T04:09:47;40.13;;;20.13;;
24145;SDS011;12308;50.948;4.706;2023-03-01T04:12:12;37.25;;;19.80;;
24145;SDS011;12308;50.948;4.706;2023-03-01T04:14:38;43.30;;;20.70;;
24145;SDS011;12308;50.948;4.706;2023-03-01T04:17:04;40.05;;;22.58;;
24145;SDS011;12308;50.948;4.706;2023-03-01T04:19:30;41.78;;;21.63;;
24145;SDS011;12308;50.948;4.706;2023-03-01T04:22:03;38.63;;;23.02;;
24145;SDS011;12308;50.948;4.706;2023-03-01T04:24:34;38.50;;;21.80;;
24145;SDS011;12308;50.948;4.706;2023-03-01T04:27:00;40.30;;;21.63;;
24145;SDS011;12308;50.948;4.706;2023-03-01T04:29:26;41.03;;;21.92;;
24145;SDS011;12308;50.948;4.706;2023-03-01T04:31:52;43.03;;;21.27;;
24145;SDS011;12308;50.948;4.706;2023-03-01T04:34:18;42.70;;;21.13;;
24145;SDS011;12308;50.948;4.706;2023-03-01T04:36:43;42.15;;;20.48;;
24145;SDS011;12308;50.948;4.706;2023-03-01T04:39:09;41.67;;;21.50;;
24145;SDS011;12308;50.948;4.706;2023-03-01T04:41:38;42.72;;;21.83;;
24145;SDS011;12308;50.948;4.706;2023-03-01T04:44:05;40.25;;;21.75;;
24145;SDS011;12308;50.948;4.706;2023-03-01T04:46:34;40.72;;;21.73;;
24145;SDS011;12308;50.948;4.706;2023-03-01T04:49:00;40.38;;;20.85;;
24145;SDS011;12308;50.948;4.706;2023-03-01T04:51:27;43.65;;;21.58;;
24145;SDS011;12308;50.948;4.706;2023-03-01T04:53:53;42.25;;;21.85;;
24145;SDS011;12308;50.948;4.706;2023-03-01T04:56:19;39.58;;;20.83;;
24145;SDS011;12308;50.948;4.706;2023-03-01T04:58:45;44.85;;;23.30;;
24145;SDS011;12308;50.948;4.706;2023-03-01T05:01:12;47.20;;;22.08;;
24145;SDS011;12308;50.948;4.706;2023-03-01T05:03:41;45.17;;;23.02;;
24145;SDS011;12308;50.948;4.706;2023-03-01T05:06:08;42.10;;;22.23;;
24145;SDS011;12308;50.948;4.706;2023-03-01T05:08:36;38.95;;;21.30;;
24145;SDS011;12308;50.948;4.706;2023-03-01T05:11:02;65.97;;;24.10;;
24145;SDS011;12308;50.948;4.706;2023-03-01T05:13:28;47.92;;;24.17;;
24145;SDS011;12308;50.948;4.706;2023-03-01T05:15:58;49.22;;;23.08;;
24145;SDS011;12308;50.948;4.706;2023-03-01T05:18:26;43.20;;;21.27;;
24145;SDS011;12308;50.948;4.706;2023-03-01T05:21:00;41.35;;;21.50;;
24145;SDS011;12308;50.948;4.706;2023-03-01T05:23:34;48.22;;;22.10;;
24145;SDS011;12308;50.948;4.706;2023-03-01T05:26:01;41.40;;;21.05;;
24145;SDS011;12308;50.948;4.706;2023-03-01T05:28:29;47.88;;;21.90;;
24145;SDS011;12308;50.948;4.706;2023-03-01T05:30:55;49.05;;;22.13;;
24145;SDS011;12308;50.948;4.706;2023-03-01T05:33:21;50.72;;;21.33;;
24145;SDS011;12308;50.948;4.706;2023-03-01T05:35:48;40.00;;;21.20;;
24145;SDS011;12308;50.948;4.706;2023-03-01T05:38:15;49.70;;;21.90;;
24145;SDS011;12308;50.948;4.706;2023-03-01T05:40:42;60.33;;;22.10;;
24145;SDS011;12308;50.948;4.706;2023-03-01T05:43:09;41.13;;;21.45;;
24145;SDS011;12308;50.948;4.706;2023-03-01T05:45:35;45.95;;;21.33;;
24145;SDS011;12308;50.948;4.706;2023-03-01T05:48:03;53.95;;;21.23;;
24145;SDS011;12308;50.948;4.706;2023-03-01T05:50:32;43.42;;;19.80;;
24145;SDS011;12308;50.948;4.706;2023-03-01T05:53:01;45.83;;;20.88;;
24145;SDS011;12308;50.948;4.706;2023-03-01T05:55:33;44.95;;;20.40;;
24145;SDS011;12308;50.948;4.706;2023-03-01T05:58:04;48.63;;;21.15;;
24145;SDS011;12308;50.948;4.706;2023-03-01T06:00:32;46.42;;;22.40;;
24145;SDS011;12308;50.948;4.706;2023-03-01T06:02:58;43.17;;;22.25;;
24145;SDS011;12308;50.948;4.706;2023-03-01T06:05:25;42.47;;;22.15;;
24145;SDS011;12308;50.948;4.706;2023-03-01T06:07:51;49.42;;;21.77;;
24145;SDS011;12308;50.948;4.706;2023-03-01T06:10:18;45.25;;;21.15;;
24145;SDS011;12308;50.948;4.706;2023-03-01T06:12:45;45.65;;;21.85;;
24145;SDS011;12308;50.948;4.706;2023-03-01T06:15:11;44.78;;;22.30;;
24145;SDS011;12308;50.948;4.706;2023-03-01T06:17:39;43.83;;;22.50;;
24145;SDS011;12308;50.948;4.706;2023-03-01T06:20:19;43.67;;;22.25;;
24145;SDS011;12308;50.948;4.706;2023-03-01T06:22:46;51.17;;;22.13;;
24145;SDS011;12308;50.948;4.706;2023-03-01T06:25:14;43.15;;;21.65;;
24145;SDS011;12308;50.948;4.706;2023-03-01T06:27:42;46.22;;;23.13;;
24145;SDS011;12308;50.948;4.706;2023-03-01T06:30:09;44.33;;;21.33;;
24145;SDS011;12308;50.948;4.706;2023-03-01T06:32:36;48.33;;;20.67;;
24145;SDS011;12308;50.948;4.706;2023-03-01T06:35:03;69.88;;;21.88;;
24145;SDS011;12308;50.948;4.706;2023-03-01T06:37:30;50.35;;;20.98;;
24145;SDS011;12308;50.948;4.706;2023-03-01T06:39:55;39.08;;;21.48;;
24145;SDS011;12308;50.948;4.706;2023-03-01T06:42:21;37.20;;;20.27;;
24145;SDS011;12308;50.948;4.706;2023-03-01T06:44:47;38.85;;;20.55;;
24145;SDS011;12308;50.948;4.706;2023-03-01T06:47:12;36.58;;;20.60;;
24145;SDS011;12308;50.948;4.706;2023-03-01T06:49:38;40.97;;;21.30;;
24145;SDS011;12308;50.948;4.706;2023-03-01T06:52:04;47.13;;;21.55;;
24145;SDS011;12308;50.948;4.706;2023-03-01T06:54:29;51.00;;;21.50;;
24145;SDS011;12308;50.948;4.706;2023-03-01T06:56:55;46.95;;;20.67;;
24145;SDS011;12308;50.948;4.706;2023-03-01T06:59:21;44.67;;;20.85;;
24145;SDS011;12308;50.948;4.706;2023-03-01T07:01:46;44.30;;;19.85;;
24145;SDS011;12308;50.948;4.706;2023-03-01T07:04:12;41.88;;;21.15;;
24145;SDS011;12308;50.948;4.706;2023-03-01T07:06:39;40.83;;;20.92;;
24145;SDS011;12308;50.948;4.706;2023-03-01T07:09:04;43.75;;;21.52;;
24145;SDS011;12308;50.948;4.706;2023-03-01T07:11:30;46.85;;;21.42;;
24145;SDS011;12308;50.948;4.706;2023-03-01T07:13:56;46.03;;;21.88;;
24145;SDS011;12308;50.948;4.706;2023-03-01T07:16:23;49.47;;;23.17;;
24145;SDS011;12308;50.948;4.706;2023-03-01T07:18:49;59.72;;;23.23;;
24145;SDS011;12308;50.948;4.706;2023-03-01T07:21:14;49.33;;;21.80;;
24145;SDS011;12308;50.948;4.706;2023-03-01T07:23:41;54.85;;;23.13;;
24145;SDS011;12308;50.948;4.706;2023-03-01T07:26:07;45.75;;;23.02;;
24145;SDS011;12308;50.948;4.706;2023-03-01T07:28:32;52.47;;;23.50;;
24145;SDS011;12308;50.948;4.706;2023-03-01T07:31:03;51.60;;;25.50;;
24145;SDS011;12308;50.948;4.706;2023-03-01T07:33:30;46.75;;;24.77;;
24145;SDS011;12308;50.948;4.706;2023-03-01T07:36:00;49.22;;;23.92;;
24145;SDS011;12308;50.948;4.706;2023-03-01T07:38:27;52.85;;;25.25;;
24145;SDS011;12308;50.948;4.706;2023-03-01T07:40:54;48.55;;;24.13;;
24145;SDS011;12308;50.948;4.706;2023-03-01T07:43:24;44.63;;;24.27;;
24145;SDS011;12308;50.948;4.706;2023-03-01T07:45:49;46.75;;;24.40;;
24145;SDS011;12308;50.948;4.706;2023-03-01T07:48:15;54.70;;;23.85;;
24145;SDS011;12308;50.948;4.706;2023-03-01T07:50:41;49.92;;;24.30;;
24145;SDS011;12308;50.948;4.706;2023-03-01T07:53:06;47.80;;;24.20;;
24145;SDS011;12308;50.948;4.706;2023-03-01T07:55:32;45.17;;;24.48;;
24145;SDS011;12308;50.948;4.706;2023-03-01T07:57:57;51.13;;;24.17;;
24145;SDS011;12308;50.948;4.706;2023-03-01T08:00:23;46.45;;;23.80;;
24145;SDS011;12308;50.948;4.706;2023-03-01T08:02:49;51.95;;;23.95;;
24145;SDS011;12308;50.948;4.706;2023-03-01T08:05:14;43.03;;;22.55;;
24145;SDS011;12308;50.948;4.706;2023-03-01T08:07:40;50.58;;;24.45;;
24145;SDS011;12308;50.948;4.706;2023-03-01T08:10:06;48.80;;;23.00;;
24145;SDS011;12308;50.948;4.706;2023-03-01T08:12:32;48.50;;;22.60;;
24145;SDS011;12308;50.948;4.706;2023-03-01T08:14:58;43.03;;;22.40;;
24145;SDS011;12308;50.948;4.706;2023-03-01T08:17:23;40.47;;;21.95;;
24145;SDS011;12308;50.948;4.706;2023-03-01T08:19:49;43.55;;;22.80;;
24145;SDS011;12308;50.948;4.706;2023-03-01T08:22:15;44.30;;;23.08;;
24145;SDS011;12308;50.948;4.706;2023-03-01T08:24:41;48.25;;;23.33;;
24145;SDS011;12308;50.948;4.706;2023-03-01T08:27:06;39.28;;;21.38;;
24145;SDS011;12308;50.948;4.706;2023-03-01T08:29:32;42.35;;;22.27;;
24145;SDS011;12308;50.948;4.706;2023-03-01T08:31:58;40.00;;;21.67;;
24145;SDS011;12308;50.948;4.706;2023-03-01T08:34:24;47.75;;;21.55;;
24145;SDS011;12308;50.948;4.706;2023-03-01T08:36:50;48.38;;;23.27;;
24145;SDS011;12308;50.948;4.706;2023-03-01T08:39:17;55.33;;;23.02;;
24145;SDS011;12308;50.948;4.706;2023-03-01T08:41:44;42.88;;;22.38;;
24145;SDS011;12308;50.948;4.706;2023-03-01T08:44:11;38.85;;;20.77;;
24145;SDS011;12308;50.948;4.706;2023-03-01T08:46:39;39.42;;;20.30;;
24145;SDS011;12308;50.948;4.706;2023-03-01T08:49:16;41.67;;;21.75;;
24145;SDS011;12308;50.948;4.706;2023-03-01T08:51:44;44.20;;;22.38;;
24145;SDS011;12308;50.948;4.706;2023-03-01T08:54:18;38.50;;;20.35;;
24145;SDS011;12308;50.948;4.706;2023-03-01T08:56:45;36.15;;;20.98;;
24145;SDS011;12308;50.948;4.706;2023-03-01T08:59:12;35.40;;;19.98;;
24145;SDS011;12308;50.948;4.706;2023-03-01T09:01:38;45.50;;;21.85;;
24145;SDS011;12308;50.948;4.706;2023-03-01T09:04:05;42.45;;;21.65;;
24145;SDS011;12308;50.948;4.706;2023-03-01T09:06:31;37.60;;;21.73;;
24145;SDS011;12308;50.948;4.706;2023-03-01T09:09:00;36.05;;;21.02;;
24145;SDS011;12308;50.948;4.706;2023-03-01T09:11:28;41.45;;;21.25;;
24145;SDS011;12308;50.948;4.706;2023-03-01T09:13:54;38.90;;;21.70;;
24145;SDS011;12308;50.948;4.706;2023-03-01T09:16:20;38.63;;;20.77;;
24145;SDS011;12308;50.948;4.706;2023-03-01T09:18:50;40.72;;;20.38;;
24145;SDS011;12308;50.948;4.706;2023-03-01T09:21:17;39.47;;;20.80;;
24145;SDS011;12308;50.948;4.706;2023-03-01T09:23:46;34.83;;;20.02;;
24145;SDS011;12308;50.948;4.706;2023-03-01T09:26:14;39.60;;;20.08;;
24145;SDS011;12308;50.948;4.706;2023-03-01T09:28:44;39.38;;;20.88;;
24145;SDS011;12308;50.948;4.706;2023-03-01T09:31:10;36.05;;;19.95;;
24145;SDS011;12308;50.948;4.706;2023-03-01T09:33:40;34.00;;;19.42;;
24145;SDS011;12308;50.948;4.706;2023-03-01T09:36:07;39.13;;;19.30;;
24145;SDS011;12308;50.948;4.706;2023-03-01T09:38:35;37.95;;;19.25;;
24145;SDS011;12308;50.948;4.706;2023-03-01T09:41:01;33.30;;;18.73;;
24145;SDS011;12308;50.948;4.706;2023-03-01T09:43:29;40.92;;;19.20;;
24145;SDS011;12308;50.948;4.706;2023-03-01T09:46:00;33.15;;;18.85;;
24145;SDS011;12308;50.948;4.706;2023-03-01T09:48:31;33.25;;;18.42;;
24145;SDS011;12308;50.948;4.706;2023-03-01T09:51:06;36.90;;;19.48;;
24145;SDS011;12308;50.948;4.706;2023-03-01T09:53:39;35.05;;;20.77;;
24145;SDS011;12308;50.948;4.706;2023-03-01T09:56:05;36.95;;;19.63;;
24145;SDS011;12308;50.948;4.706;2023-03-01T10:01:32;31.33;;;17.58;;
24145;SDS011;12308;50.948;4.706;2023-03-01T10:06:45;35.58;;;18.60;;
24145;SDS011;12308;50.948;4.706;2023-03-01T10:09:21;33.75;;;18.80;;
24145;SDS011;12308;50.948;4.706;2023-03-01T10:11:51;39.38;;;18.55;;
24145;SDS011;12308;50.948;4.706;2023-03-01T10:17:37;37.83;;;18.73;;
24145;SDS011;12308;50.948;4.706;2023-03-01T10:20:24;32.20;;;18.38;;
24145;SDS011;12308;50.948;4.706;2023-03-01T10:22:54;35.45;;;18.20;;
24145;SDS011;12308;50.948;4.706;2023-03-01T10:25:40;32.67;;;18.13;;
24145;SDS011;12308;50.948;4.706;2023-03-01T10:31:22;36.58;;;17.98;;
24145;SDS011;12308;50.948;4.706;2023-03-01T10:33:53;40.33;;;17.60;;
24145;SDS011;12308;50.948;4.706;2023-03-01T10:36:20;28.45;;;16.13;;
24145;SDS011;12308;50.948;4.706;2023-03-01T10:38:51;32.08;;;17.25;;
24145;SDS011;12308;50.948;4.706;2023-03-01T10:41:19;30.42;;;17.25;;
24145;SDS011;12308;50.948;4.706;2023-03-01T10:43:53;34.03;;;16.48;;
24145;SDS011;12308;50.948;4.706;2023-03-01T10:46:30;33.22;;;17.83;;
24145;SDS011;12308;50.948;4.706;2023-03-01T10:49:07;33.40;;;17.48;;
24145;SDS011;12308;50.948;4.706;2023-03-01T10:51:49;34.63;;;18.45;;
24145;SDS011;12308;50.948;4.706;2023-03-01T10:54:17;31.25;;;17.33;;
24145;SDS011;12308;50.948;4.706;2023-03-01T10:56:59;39.28;;;15.93;;
24145;SDS011;12308;50.948;4.706;2023-03-01T10:59:30;31.20;;;17.33;;
24145;SDS011;12308;50.948;4.706;2023-03-01T11:05:00;29.55;;;16.17;;
24145;SDS011;12308;50.948;4.706;2023-03-01T11:10:19;29.90;;;15.73;;
24145;SDS011;12308;50.948;4.706;2023-03-01T11:12:51;33.33;;;18.45;;
24145;SDS011;12308;50.948;4.706;2023-03-01T11:15:25;33.55;;;16.65;;
24145;SDS011;12308;50.948;4.706;2023-03-01T11:17:53;28.98;;;15.95;;
24145;SDS011;12308;50.948;4.706;2023-03-01T11:20:24;31.40;;;16.80;;
24145;SDS011;12308;50.948;4.706;2023-03-01T11:23:10;33.67;;;17.52;;
24145;SDS011;12308;50.948;4.706;2023-03-01T11:25:40;28.52;;;15.45;;
24145;SDS011;12308;50.948;4.706;2023-03-01T11:28:10;30.67;;;15.48;;
24145;SDS011;12308;50.948;4.706;2023-03-01T11:30:47;27.55;;;15.25;;
24145;SDS011;12308;50.948;4.706;2023-03-01T11:33:18;30.20;;;13.68;;
24145;SDS011;12308;50.948;4.706;2023-03-01T11:47:38;30.60;;;14.77;;
24145;SDS011;12308;50.948;4.706;2023-03-01T11:53:22;23.95;;;13.05;;
24145;SDS011;12308;50.948;4.706;2023-03-01T11:56:00;25.70;;;15.00;;
24145;SDS011;12308;50.948;4.706;2023-03-01T11:58:47;28.52;;;16.05;;
24145;SDS011;12308;50.948;4.706;2023-03-01T12:04:11;27.73;;;14.85;;
24145;SDS011;12308;50.948;4.706;2023-03-01T12:22:20;26.85;;;15.55;;
24145;SDS011;12308;50.948;4.706;2023-03-01T12:36:11;27.92;;;15.75;;
24145;SDS011;12308;50.948;4.706;2023-03-01T12:44:49;26.63;;;14.63;;
24145;SDS011;12308;50.948;4.706;2023-03-01T12:50:26;27.17;;;15.98;;
24145;SDS011;12308;50.948;4.706;2023-03-01T12:53:04;38.40;;;15.68;;
24145;SDS011;12308;50.948;4.706;2023-03-01T12:55:33;27.58;;;15.27;;
24145;SDS011;12308;50.948;4.706;2023-03-01T12:58:24;29.45;;;15.18;;
24145;SDS011;12308;50.948;4.706;2023-03-01T13:01:24;28.85;;;15.68;;
24145;SDS011;12308;50.948;4.706;2023-03-01T13:04:18;29.20;;;15.05;;
24145;SDS011;12308;50.948;4.706;2023-03-01T13:09:48;31.13;;;15.00;;
24145;SDS011;12308;50.948;4.706;2023-03-01T13:15:24;27.48;;;15.48;;
24145;SDS011;12308;50.948;4.706;2023-03-01T13:20:31;26.95;;;15.55;;
24145;SDS011;12308;50.948;4.706;2023-03-01T13:26:19;32.35;;;15.82;;
24145;SDS011;12308;50.948;4.706;2023-03-01T13:33:59;32.38;;;16.77;;
24145;SDS011;12308;50.948;4.706;2023-03-01T13:39:38;25.98;;;15.98;;
24145;SDS011;12308;50.948;4.706;2023-03-01T13:41:52;27.60;;;15.75;;
24145;SDS011;12308;50.948;4.706;2023-03-01T13:46:49;29.02;;;15.18;;
24145;SDS011;12308;50.948;4.706;2023-03-01T13:49:18;29.73;;;15.68;;
24145;SDS011;12308;50.948;4.706;2023-03-01T13:51:49;31.80;;;14.77;;
24145;SDS011;12308;50.948;4.706;2023-03-01T13:54:17;25.85;;;15.25;;
24145;SDS011;12308;50.948;4.706;2023-03-01T13:56:57;26.85;;;15.15;;
24145;SDS011;12308;50.948;4.706;2023-03-01T13:59:25;27.88;;;15.23;;
24145;SDS011;12308;50.948;4.706;2023-03-01T14:01:55;34.70;;;16.10;;
24145;SDS011;12308;50.948;4.706;2023-03-01T14:09:37;25.45;;;14.55;;
24145;SDS011;12308;50.948;4.706;2023-03-01T14:17:35;29.30;;;15.38;;
24145;SDS011;12308;50.948;4.706;2023-03-01T14:20:16;28.95;;;15.20;;
24145;SDS011;12308;50.948;4.706;2023-03-01T14:22:44;34.83;;;16.75;;
24145;SDS011;12308;50.948;4.706;2023-03-01T14:25:16;34.65;;;16.77;;
24145;SDS011;12308;50.948;4.706;2023-03-01T14:30:47;26.08;;;15.88;;
24145;SDS011;12308;50.948;4.706;2023-03-01T14:33:20;26.23;;;15.15;;
24145;SDS011;12308;50.948;4.706;2023-03-01T14:41:02;25.20;;;14.65;;
24145;SDS011;12308;50.948;4.706;2023-03-01T14:43:31;23.50;;;13.90;;
24145;SDS011;12308;50.948;4.706;2023-03-01T14:45:57;26.88;;;14.38;;
24145;SDS011;12308;50.948;4.706;2023-03-01T14:48:23;26.02;;;14.23;;
24145;SDS011;12308;50.948;4.706;2023-03-01T14:50:49;23.50;;;11.60;;
24145;SDS011;12308;50.948;4.706;2023-03-01T14:53:20;28.65;;;14.50;;
24145;SDS011;12308;50.948;4.706;2023-03-01T14:55:50;29.80;;;14.20;;
24145;SDS011;12308;50.948;4.706;2023-03-01T14:58:19;24.00;;;13.93;;
24145;SDS011;12308;50.948;4.706;2023-03-01T15:00:51;22.05;;;13.18;;
24145;SDS011;12308;50.948;4.706;2023-03-01T15:03:33;27.60;;;11.88;;
24145;SDS011;12308;50.948;4.706;2023-03-01T15:08:30;29.15;;;12.98;;
24145;SDS011;12308;50.948;4.706;2023-03-01T15:11:04;24.70;;;13.20;;
24145;SDS011;12308;50.948;4.706;2023-03-01T15:13:41;24.98;;;12.35;;
24145;SDS011;12308;50.948;4.706;2023-03-01T15:18:36;23.42;;;12.07;;
24145;SDS011;12308;50.948;4.706;2023-03-01T15:21:13;23.13;;;11.98;;
24145;SDS011;12308;50.948;4.706;2023-03-01T15:23:57;22.23;;;13.05;;
24145;SDS011;12308;50.948;4.706;2023-03-01T15:27:04;22.50;;;11.88;;
24145;SDS011;12308;50.948;4.706;2023-03-01T15:29:32;23.35;;;12.00;;
24145;SDS011;12308;50.948;4.706;2023-03-01T15:32:27;22.48;;;12.45;;
24145;SDS011;12308;50.948;4.706;2023-03-01T15:34:53;22.08;;;11.82;;
24145;SDS011;12308;50.948;4.706;2023-03-01T15:40:17;23.65;;;11.75;;
24145;SDS011;12308;50.948;4.706;2023-03-01T15:42:43;21.58;;;11.13;;
24145;SDS011;12308;50.948;4.706;2023-03-01T15:47:41;19.50;;;10.90;;
24145;SDS011;12308;50.948;4.706;2023-03-01T15:50:18;20.88;;;11.68;;
24145;SDS011;12308;50.948;4.706;2023-03-01T15:52:46;22.38;;;11.60;;
24145;SDS011;12308;50.948;4.706;2023-03-01T15:55:16;21.95;;;12.13;;
24145;SDS011;12308;50.948;4.706;2023-03-01T15:57:48;20.92;;;11.30;;
24145;SDS011;12308;50.948;4.706;2023-03-01T16:00:15;17.85;;;10.88;;
24145;SDS011;12308;50.948;4.706;2023-03-01T16:02:42;20.20;;;11.75;;
24145;SDS011;12308;50.948;4.706;2023-03-01T16:05:19;24.35;;;11.27;;
24145;SDS011;12308;50.948;4.706;2023-03-01T16:07:48;23.55;;;11.90;;
24145;SDS011;12308;50.948;4.706;2023-03-01T16:10:13;21.08;;;12.27;;
24145;SDS011;12308;50.948;4.706;2023-03-01T16:12:39;23.52;;;12.75;;
24145;SDS011;12308;50.948;4.706;2023-03-01T16:15:10;25.65;;;12.43;;
24145;SDS011;12308;50.948;4.706;2023-03-01T16:17:43;21.70;;;12.32;;
24145;SDS011;12308;50.948;4.706;2023-03-01T16:20:09;21.85;;;12.05;;
24145;SDS011;12308;50.948;4.706;2023-03-01T16:22:35;20.60;;;12.30;;
24145;SDS011;12308;50.948;4.706;2023-03-01T16:25:00;23.75;;;12.13;;
24145;SDS011;12308;50.948;4.706;2023-03-01T16:27:27;23.95;;;12.93;;
24145;SDS011;12308;50.948;4.706;2023-03-01T16:29:53;25.77;;;12.90;;
24145;SDS011;12308;50.948;4.706;2023-03-01T16:32:18;21.17;;;11.98;;
24145;SDS011;12308;50.948;4.706;2023-03-01T16:34:44;25.65;;;12.18;;
24145;SDS011;12308;50.948;4.706;2023-03-01T16:37:12;22.20;;;12.45;;
24145;SDS011;12308;50.948;4.706;2023-03-01T16:39:38;23.25;;;12.15;;
24145;SDS011;12308;50.948;4.706;2023-03-01T16:42:04;27.30;;;12.75;;
24145;SDS011;12308;50.948;4.706;2023-03-01T16:44:29;22.88;;;12.73;;